OIMC  Sarakhs  Airport

Sarakhs, Iran

Add Bookmark
Status IATA
Operational CKT
Latitude Longitude
36° 30' 4" N 61° 3' 53" E
36.501202 61.064899
Local (DST + 5) UTC (GMT + 4)
Mar 29, 2015 05:32 Mar 29, 2015 01:02
Sunrise-Sunset Local UTC
Begin Civil Twilight 05:49 01:19
Sunrise 06:14 01:44
Sunset 06:46 14:16
End Civil Twilight 07:12 14:42

Current Weather

METAR Observed VFR
OIMC 281700Z 15004KT CAVOK 12/07 Q1022 Sat, Mar 28, 2015 @ 17:00 UTC
(8 Hours, 2 Minutes ago)
Visual Flight Rules
Wind Visibility Clouds Conditions
150° at 4 knots (7 kph) 10 km or more
  • Clear skies
  • No significant weather
Temperatures Readings Precipitation
Current Temp 12°C (54°F)
Dewpoint 7°C (45°F)
Humidity 72%
Altimeter 30.18"Hg
Sea Level Pressure 1022mb
Field Elevation 944.88'
None Recorded

Additional weather within a 185.2km radius of OIMC

Map ICAO Location
OIMM 130.8km W (257°)
UTAM 144.5km N (030°)

24 Hour Weather History

Loading
-

24 Hour Weather Graphs

Loading
-

CheckWX.com is intended as a tool to help pilots better visualize weather data. It is not intended as a substitute for an official weather briefing obtained from a Flight Service Station. CheckWX.com does not meet the FAA requirements for an official pre-flight weather briefing. Therefore, it's important that pilots still call and obtain an official FSS pre-flight weather briefing.